sensor_id;sensor_type;location;lat;lon;timestamp;temperature;humidity
14877;DHT22;22152;48.158;17.118;2023-01-16T00:00:12;6.90;91.80
14877;DHT22;22152;48.158;17.118;2023-01-16T00:02:52;6.90;92.00
14877;DHT22;22152;48.158;17.118;2023-01-16T00:05:38;6.90;92.00
14877;DHT22;22152;48.158;17.118;2023-01-16T00:08:17;6.90;92.00
14877;DHT22;22152;48.158;17.118;2023-01-16T00:11:03;6.90;91.70
14877;DHT22;22152;48.158;17.118;2023-01-16T00:13:49;6.90;91.80
14877;DHT22;22152;48.158;17.118;2023-01-16T00:16:42;6.90;91.70
14877;DHT22;22152;48.158;17.118;2023-01-16T00:19:14;6.80;91.70
14877;DHT22;22152;48.158;17.118;2023-01-16T00:22:07;6.70;91.50
14877;DHT22;22152;48.158;17.118;2023-01-16T00:24:46;6.70;91.60
14877;DHT22;22152;48.158;17.118;2023-01-16T00:27:32;6.60;91.60
14877;DHT22;22152;48.158;17.118;2023-01-16T00:30:11;6.40;91.70
14877;DHT22;22152;48.158;17.118;2023-01-16T00:32:58;6.30;91.80
14877;DHT22;22152;48.158;17.118;2023-01-16T00:35:37;6.30;92.00
14877;DHT22;22152;48.158;17.118;2023-01-16T00:38:23;6.30;92.20
14877;DHT22;22152;48.158;17.118;2023-01-16T00:41:02;6.30;92.40
14877;DHT22;22152;48.158;17.118;2023-01-16T00:43:49;6.30;92.50
14877;DHT22;22152;48.158;17.118;2023-01-16T00:46:28;6.40;92.60
14877;DHT22;22152;48.158;17.118;2023-01-16T00:49:14;6.50;92.50
14877;DHT22;22152;48.158;17.118;2023-01-16T00:51:53;6.60;92.40
14877;DHT22;22152;48.158;17.118;2023-01-16T00:54:39;6.60;92.30
14877;DHT22;22152;48.158;17.118;2023-01-16T00:57:18;6.70;92.30
14877;DHT22;22152;48.158;17.118;2023-01-16T01:00:04;6.70;92.20
14877;DHT22;22152;48.158;17.118;2023-01-16T01:02:44;6.80;92.50
14877;DHT22;22152;48.158;17.118;2023-01-16T01:05:30;6.70;92.50
14877;DHT22;22152;48.158;17.118;2023-01-16T01:08:10;6.70;92.30
14877;DHT22;22152;48.158;17.118;2023-01-16T01:10:56;6.70;92.30
14877;DHT22;22152;48.158;17.118;2023-01-16T01:13:42;6.70;92.40
14877;DHT22;22152;48.158;17.118;2023-01-16T01:16:35;6.70;92.40
14877;DHT22;22152;48.158;17.118;2023-01-16T01:19:08;6.70;92.20
14877;DHT22;22152;48.158;17.118;2023-01-16T01:22:01;6.70;92.70
14877;DHT22;22152;48.158;17.118;2023-01-16T01:24:33;6.70;92.40
14877;DHT22;22152;48.158;17.118;2023-01-16T01:27:26;6.70;92.30
14877;DHT22;22152;48.158;17.118;2023-01-16T01:29:58;6.80;92.30
14877;DHT22;22152;48.158;17.118;2023-01-16T01:32:51;6.80;92.20
14877;DHT22;22152;48.158;17.118;2023-01-16T01:35:24;6.90;92.40
14877;DHT22;22152;48.158;17.118;2023-01-16T01:38:17;6.90;91.80
14877;DHT22;22152;48.158;17.118;2023-01-16T01:40:49;6.90;91.90
14877;DHT22;22152;48.158;17.118;2023-01-16T01:43:50;6.90;91.90
14877;DHT22;22152;48.158;17.118;2023-01-16T01:46:36;6.80;91.90
14877;DHT22;22152;48.158;17.118;2023-01-16T01:49:34;6.90;92.00
14877;DHT22;22152;48.158;17.118;2023-01-16T01:52:06;6.80;91.90
14877;DHT22;22152;48.158;17.118;2023-01-16T01:55:03;6.80;91.80
14877;DHT22;22152;48.158;17.118;2023-01-16T01:57:40;6.90;91.90
14877;DHT22;22152;48.158;17.118;2023-01-16T02:00:35;6.90;91.90
14877;DHT22;22152;48.158;17.118;2023-01-16T02:03:10;6.90;91.90
14877;DHT22;22152;48.158;17.118;2023-01-16T02:06:17;6.90;91.90
14877;DHT22;22152;48.158;17.118;2023-01-16T02:08:53;6.80;92.00
14877;DHT22;22152;48.158;17.118;2023-01-16T02:12:00;6.80;92.10
14877;DHT22;22152;48.158;17.118;2023-01-16T02:14:45;6.80;92.10
14877;DHT22;22152;48.158;17.118;2023-01-16T02:17:45;6.80;92.00
14877;DHT22;22152;48.158;17.118;2023-01-16T02:27:31;6.80;92.00
14877;DHT22;22152;48.158;17.118;2023-01-16T02:34:24;6.80;92.10
14877;DHT22;22152;48.158;17.118;2023-01-16T02:37:43;6.80;92.10
14877;DHT22;22152;48.158;17.118;2023-01-16T02:40:32;6.80;92.10
14877;DHT22;22152;48.158;17.118;2023-01-16T02:43:39;6.80;91.90
14877;DHT22;22152;48.158;17.118;2023-01-16T02:49:40;6.80;92.00
14877;DHT22;22152;48.158;17.118;2023-01-16T02:55:50;6.80;91.90
14877;DHT22;22152;48.158;17.118;2023-01-16T02:58:26;6.80;91.80
14877;DHT22;22152;48.158;17.118;2023-01-16T03:01:20;6.80;92.00
14877;DHT22;22152;48.158;17.118;2023-01-16T03:06:59;6.80;92.10
14877;DHT22;22152;48.158;17.118;2023-01-16T03:13:51;6.90;92.00
14877;DHT22;22152;48.158;17.118;2023-01-16T03:20:13;6.80;91.90
14877;DHT22;22152;48.158;17.118;2023-01-16T03:26:34;6.80;92.00
14877;DHT22;22152;48.158;17.118;2023-01-16T03:29:55;6.80;91.90
14877;DHT22;22152;48.158;17.118;2023-01-16T03:33:20;6.80;92.10
14877;DHT22;22152;48.158;17.118;2023-01-16T03:39:33;6.90;91.90
14877;DHT22;22152;48.158;17.118;2023-01-16T03:51:30;6.80;92.10
14877;DHT22;22152;48.158;17.118;2023-01-16T03:54:31;6.80;92.10
14877;DHT22;22152;48.158;17.118;2023-01-16T03:57:37;6.80;92.10
14877;DHT22;22152;48.158;17.118;2023-01-16T04:00:31;6.80;91.90
14877;DHT22;22152;48.158;17.118;2023-01-16T04:03:33;6.80;92.10
14877;DHT22;22152;48.158;17.118;2023-01-16T04:06:52;6.90;92.10
14877;DHT22;22152;48.158;17.118;2023-01-16T04:09:59;6.90;91.90
14877;DHT22;22152;48.158;17.118;2023-01-16T04:12:52;6.90;91.80
14877;DHT22;22152;48.158;17.118;2023-01-16T04:15:45;6.90;91.70
14877;DHT22;22152;48.158;17.118;2023-01-16T04:18:41;6.80;91.80
14877;DHT22;22152;48.158;17.118;2023-01-16T04:21:14;6.80;91.90
14877;DHT22;22152;48.158;17.118;2023-01-16T04:24:07;6.70;91.80
14877;DHT22;22152;48.158;17.118;2023-01-16T04:26:39;6.70;92.00
14877;DHT22;22152;48.158;17.118;2023-01-16T04:29:32;6.70;91.90
14877;DHT22;22152;48.158;17.118;2023-01-16T04:32:04;6.70;91.80
14877;DHT22;22152;48.158;17.118;2023-01-16T04:34:57;6.80;91.90
14877;DHT22;22152;48.158;17.118;2023-01-16T04:37:29;6.80;91.90
14877;DHT22;22152;48.158;17.118;2023-01-16T04:40:22;6.80;91.90
14877;DHT22;22152;48.158;17.118;2023-01-16T04:42:55;6.80;91.80
14877;DHT22;22152;48.158;17.118;2023-01-16T04:45:48;6.90;91.60
14877;DHT22;22152;48.158;17.118;2023-01-16T04:48:20;6.80;91.60
14877;DHT22;22152;48.158;17.118;2023-01-16T04:51:13;6.90;91.60
14877;DHT22;22152;48.158;17.118;2023-01-16T04:53:45;6.90;91.70
14877;DHT22;22152;48.158;17.118;2023-01-16T04:56:38;6.80;91.50
14877;DHT22;22152;48.158;17.118;2023-01-16T04:59:11;6.90;91.70
14877;DHT22;22152;48.158;17.118;2023-01-16T05:02:04;6.80;91.60
14877;DHT22;22152;48.158;17.118;2023-01-16T05:04:36;6.90;91.60
14877;DHT22;22152;48.158;17.118;2023-01-16T05:07:29;6.90;91.70
14877;DHT22;22152;48.158;17.118;2023-01-16T05:10:01;6.90;91.60
14877;DHT22;22152;48.158;17.118;2023-01-16T05:12:55;6.90;91.60
14877;DHT22;22152;48.158;17.118;2023-01-16T05:15:27;6.90;91.70
14877;DHT22;22152;48.158;17.118;2023-01-16T05:18:20;6.90;91.60
14877;DHT22;22152;48.158;17.118;2023-01-16T05:20:53;6.90;91.70
14877;DHT22;22152;48.158;17.118;2023-01-16T05:23:46;6.90;91.60
14877;DHT22;22152;48.158;17.118;2023-01-16T05:26:18;6.90;91.70
14877;DHT22;22152;48.158;17.118;2023-01-16T05:29:11;6.90;91.50
14877;DHT22;22152;48.158;17.118;2023-01-16T05:31:43;7.00;91.50
14877;DHT22;22152;48.158;17.118;2023-01-16T05:34:35;7.00;91.40
14877;DHT22;22152;48.158;17.118;2023-01-16T05:37:15;6.90;91.40
14877;DHT22;22152;48.158;17.118;2023-01-16T05:40:01;6.90;91.50
14877;DHT22;22152;48.158;17.118;2023-01-16T05:42:44;6.90;91.60
14877;DHT22;22152;48.158;17.118;2023-01-16T05:45:31;6.90;91.90
14877;DHT22;22152;48.158;17.118;2023-01-16T05:48:11;6.90;91.90
14877;DHT22;22152;48.158;17.118;2023-01-16T05:50:57;7.00;91.40
14877;DHT22;22152;48.158;17.118;2023-01-16T05:53:36;7.00;91.80
14877;DHT22;22152;48.158;17.118;2023-01-16T05:56:22;7.00;91.40
14877;DHT22;22152;48.158;17.118;2023-01-16T05:59:02;7.00;91.30
14877;DHT22;22152;48.158;17.118;2023-01-16T06:01:48;7.00;91.20
14877;DHT22;22152;48.158;17.118;2023-01-16T06:04:27;6.90;91.70
14877;DHT22;22152;48.158;17.118;2023-01-16T06:07:13;6.90;91.40
14877;DHT22;22152;48.158;17.118;2023-01-16T06:09:53;7.00;91.60
14877;DHT22;22152;48.158;17.118;2023-01-16T06:12:38;7.00;91.50
14877;DHT22;22152;48.158;17.118;2023-01-16T06:15:24;7.00;91.50
14877;DHT22;22152;48.158;17.118;2023-01-16T06:18:17;7.00;91.20
14877;DHT22;22152;48.158;17.118;2023-01-16T06:20:50;7.00;91.30
14877;DHT22;22152;48.158;17.118;2023-01-16T06:23:42;7.00;91.40
14877;DHT22;22152;48.158;17.118;2023-01-16T06:26:15;7.00;91.20
14877;DHT22;22152;48.158;17.118;2023-01-16T06:29:09;7.00;91.30
14877;DHT22;22152;48.158;17.118;2023-01-16T06:31:42;7.00;91.20
14877;DHT22;22152;48.158;17.118;2023-01-16T06:34:34;7.00;91.20
14877;DHT22;22152;48.158;17.118;2023-01-16T06:37:07;7.10;91.70
14877;DHT22;22152;48.158;17.118;2023-01-16T06:39:59;7.10;91.20
14877;DHT22;22152;48.158;17.118;2023-01-16T06:42:33;7.20;91.20
14877;DHT22;22152;48.158;17.118;2023-01-16T06:45:25;7.10;90.80
14877;DHT22;22152;48.158;17.118;2023-01-16T06:47:58;7.10;91.00
14877;DHT22;22152;48.158;17.118;2023-01-16T06:50:52;7.00;91.10
14877;DHT22;22152;48.158;17.118;2023-01-16T06:53:25;7.00;91.30
14877;DHT22;22152;48.158;17.118;2023-01-16T06:56:18;6.90;91.50
14877;DHT22;22152;48.158;17.118;2023-01-16T06:58:51;7.00;91.70
14877;DHT22;22152;48.158;17.118;2023-01-16T07:01:43;7.10;91.70
14877;DHT22;22152;48.158;17.118;2023-01-16T07:04:16;7.20;91.70
14877;DHT22;22152;48.158;17.118;2023-01-16T07:07:08;7.30;91.50
14877;DHT22;22152;48.158;17.118;2023-01-16T07:09:41;7.30;91.50
14877;DHT22;22152;48.158;17.118;2023-01-16T07:12:33;7.30;91.30
14877;DHT22;22152;48.158;17.118;2023-01-16T07:15:07;7.30;91.30
14877;DHT22;22152;48.158;17.118;2023-01-16T07:18:18;7.40;91.40
14877;DHT22;22152;48.158;17.118;2023-01-16T07:21:12;7.40;91.30
14877;DHT22;22152;48.158;17.118;2023-01-16T07:24:25;7.40;91.20
14877;DHT22;22152;48.158;17.118;2023-01-16T07:27:00;7.40;91.30
14877;DHT22;22152;48.158;17.118;2023-01-16T07:29:55;7.40;91.30
14877;DHT22;22152;48.158;17.118;2023-01-16T07:32:28;7.40;91.30
14877;DHT22;22152;48.158;17.118;2023-01-16T07:35:20;7.50;91.40
14877;DHT22;22152;48.158;17.118;2023-01-16T07:37:53;7.40;91.40
14877;DHT22;22152;48.158;17.118;2023-01-16T07:40:45;7.50;91.40
14877;DHT22;22152;48.158;17.118;2023-01-16T07:43:18;7.50;91.40
14877;DHT22;22152;48.158;17.118;2023-01-16T07:46:10;7.60;91.10
14877;DHT22;22152;48.158;17.118;2023-01-16T07:48:43;7.60;91.00
14877;DHT22;22152;48.158;17.118;2023-01-16T07:51:36;7.70;91.00
14877;DHT22;22152;48.158;17.118;2023-01-16T07:54:11;7.70;90.80
14877;DHT22;22152;48.158;17.118;2023-01-16T07:57:03;7.70;90.90
14877;DHT22;22152;48.158;17.118;2023-01-16T07:59:36;7.80;91.10
14877;DHT22;22152;48.158;17.118;2023-01-16T08:02:28;7.80;90.90
14877;DHT22;22152;48.158;17.118;2023-01-16T08:05:01;7.80;90.90
14877;DHT22;22152;48.158;17.118;2023-01-16T08:07:53;7.90;90.80
14877;DHT22;22152;48.158;17.118;2023-01-16T08:10:27;7.90;90.80
14877;DHT22;22152;48.158;17.118;2023-01-16T08:13:19;8.00;90.80
14877;DHT22;22152;48.158;17.118;2023-01-16T08:15:52;8.10;90.80
14877;DHT22;22152;48.158;17.118;2023-01-16T08:18:44;8.10;90.50
14877;DHT22;22152;48.158;17.118;2023-01-16T08:21:20;8.30;90.20
14877;DHT22;22152;48.158;17.118;2023-01-16T08:24:13;8.30;89.80
14877;DHT22;22152;48.158;17.118;2023-01-16T08:26:47;8.40;88.70
14877;DHT22;22152;48.158;17.118;2023-01-16T08:29:39;8.50;88.10
14877;DHT22;22152;48.158;17.118;2023-01-16T08:32:11;8.60;87.00
14877;DHT22;22152;48.158;17.118;2023-01-16T08:35:05;8.70;87.50
14877;DHT22;22152;48.158;17.118;2023-01-16T08:37:37;8.90;86.50
14877;DHT22;22152;48.158;17.118;2023-01-16T08:40:30;9.10;85.50
14877;DHT22;22152;48.158;17.118;2023-01-16T08:43:10;9.10;84.10
14877;DHT22;22152;48.158;17.118;2023-01-16T08:46:21;9.20;83.30
14877;DHT22;22152;48.158;17.118;2023-01-16T08:49:21;9.10;82.20
14877;DHT22;22152;48.158;17.118;2023-01-16T08:52:25;9.10;82.40
14877;DHT22;22152;48.158;17.118;2023-01-16T08:55:06;9.00;82.00
14877;DHT22;22152;48.158;17.118;2023-01-16T08:57:52;8.90;81.30
14877;DHT22;22152;48.158;17.118;2023-01-16T09:00:45;8.70;82.40
14877;DHT22;22152;48.158;17.118;2023-01-16T09:03:19;8.60;82.60
14877;DHT22;22152;48.158;17.118;2023-01-16T09:06:11;8.70;82.60
14877;DHT22;22152;48.158;17.118;2023-01-16T09:08:43;8.60;81.30
14877;DHT22;22152;48.158;17.118;2023-01-16T09:11:36;8.60;81.50
14877;DHT22;22152;48.158;17.118;2023-01-16T09:14:28;8.70;80.90
14877;DHT22;22152;48.158;17.118;2023-01-16T09:17:21;8.80;80.90
14877;DHT22;22152;48.158;17.118;2023-01-16T09:19:54;9.00;80.30
14877;DHT22;22152;48.158;17.118;2023-01-16T09:22:46;9.00;78.60
14877;DHT22;22152;48.158;17.118;2023-01-16T09:25:19;8.80;79.10
14877;DHT22;22152;48.158;17.118;2023-01-16T09:28:11;8.70;79.00
14877;DHT22;22152;48.158;17.118;2023-01-16T09:30:43;8.60;79.20
14877;DHT22;22152;48.158;17.118;2023-01-16T09:33:36;8.50;79.80
14877;DHT22;22152;48.158;17.118;2023-01-16T09:36:09;8.60;80.20
14877;DHT22;22152;48.158;17.118;2023-01-16T09:39:01;8.50;79.70
14877;DHT22;22152;48.158;17.118;2023-01-16T09:45:24;8.50;80.90
14877;DHT22;22152;48.158;17.118;2023-01-16T09:48:09;8.40;80.50
14877;DHT22;22152;48.158;17.118;2023-01-16T09:51:12;8.30;80.90
14877;DHT22;22152;48.158;17.118;2023-01-16T09:53:58;8.30;81.10
14877;DHT22;22152;48.158;17.118;2023-01-16T09:57:13;8.40;81.60
14877;DHT22;22152;48.158;17.118;2023-01-16T10:00:06;8.50;81.30
14877;DHT22;22152;48.158;17.118;2023-01-16T10:03:01;8.60;81.40
14877;DHT22;22152;48.158;17.118;2023-01-16T10:05:40;8.50;81.00
14877;DHT22;22152;48.158;17.118;2023-01-16T10:21:26;8.40;79.50
14877;DHT22;22152;48.158;17.118;2023-01-16T10:24:38;8.40;79.20
14877;DHT22;22152;48.158;17.118;2023-01-16T10:30:32;8.40;78.80
14877;DHT22;22152;48.158;17.118;2023-01-16T10:33:27;8.40;78.40
14877;DHT22;22152;48.158;17.118;2023-01-16T10:36:34;8.40;77.70
14877;DHT22;22152;48.158;17.118;2023-01-16T10:39:11;8.40;78.30
14877;DHT22;22152;48.158;17.118;2023-01-16T10:45:10;8.60;77.20
14877;DHT22;22152;48.158;17.118;2023-01-16T10:48:30;8.60;76.70
14877;DHT22;22152;48.158;17.118;2023-01-16T10:51:22;8.60;76.30
14877;DHT22;22152;48.158;17.118;2023-01-16T10:54:15;8.60;76.30
14877;DHT22;22152;48.158;17.118;2023-01-16T10:56:47;8.60;76.90
14877;DHT22;22152;48.158;17.118;2023-01-16T10:59:50;8.70;76.80
14877;DHT22;22152;48.158;17.118;2023-01-16T11:02:28;8.80;76.60
14877;DHT22;22152;48.158;17.118;2023-01-16T11:08:10;8.80;75.50
14877;DHT22;22152;48.158;17.118;2023-01-16T11:11:04;8.90;75.30
14877;DHT22;22152;48.158;17.118;2023-01-16T11:13:59;9.10;75.70
14877;DHT22;22152;48.158;17.118;2023-01-16T11:17:59;9.30;74.40
14877;DHT22;22152;48.158;17.118;2023-01-16T11:24:10;9.60;74.40
14877;DHT22;22152;48.158;17.118;2023-01-16T11:27:20;9.60;72.50
14877;DHT22;22152;48.158;17.118;2023-01-16T11:29:55;9.40;71.80
14877;DHT22;22152;48.158;17.118;2023-01-16T11:32:56;9.20;72.50
14877;DHT22;22152;48.158;17.118;2023-01-16T11:35:32;9.30;73.30
14877;DHT22;22152;48.158;17.118;2023-01-16T11:38:29;9.30;72.50
14877;DHT22;22152;48.158;17.118;2023-01-16T11:41:07;9.30;71.60
14877;DHT22;22152;48.158;17.118;2023-01-16T11:44:19;9.30;71.80
14877;DHT22;22152;48.158;17.118;2023-01-16T11:47:20;9.20;72.20
14877;DHT22;22152;48.158;17.118;2023-01-16T11:50:35;9.10;72.00
14877;DHT22;22152;48.158;17.118;2023-01-16T11:53:09;9.10;73.50
14877;DHT22;22152;48.158;17.118;2023-01-16T11:59:34;9.30;73.60
14877;DHT22;22152;48.158;17.118;2023-01-16T12:09:56;9.00;72.80
14877;DHT22;22152;48.158;17.118;2023-01-16T12:12:49;9.00;73.60
14877;DHT22;22152;48.158;17.118;2023-01-16T12:16:27;9.00;73.50
14877;DHT22;22152;48.158;17.118;2023-01-16T12:25:55;8.80;72.30
14877;DHT22;22152;48.158;17.118;2023-01-16T12:28:37;8.70;72.60
14877;DHT22;22152;48.158;17.118;2023-01-16T12:31:49;8.80;72.20
14877;DHT22;22152;48.158;17.118;2023-01-16T12:40:44;8.50;73.30
14877;DHT22;22152;48.158;17.118;2023-01-16T12:59:59;8.00;76.50
14877;DHT22;22152;48.158;17.118;2023-01-16T13:02:57;8.00;77.10
14877;DHT22;22152;48.158;17.118;2023-01-16T13:05:42;8.00;77.60
14877;DHT22;22152;48.158;17.118;2023-01-16T13:08:34;8.10;77.60
14877;DHT22;22152;48.158;17.118;2023-01-16T13:11:25;8.20;77.80
14877;DHT22;22152;48.158;17.118;2023-01-16T13:14:33;8.20;78.10
14877;DHT22;22152;48.158;17.118;2023-01-16T13:17:46;8.20;78.20
14877;DHT22;22152;48.158;17.118;2023-01-16T13:20:22;8.10;77.80
14877;DHT22;22152;48.158;17.118;2023-01-16T13:23:21;8.00;78.50
14877;DHT22;22152;48.158;17.118;2023-01-16T13:26:08;7.80;79.30
14877;DHT22;22152;48.158;17.118;2023-01-16T13:29:24;7.70;79.80
14877;DHT22;22152;48.158;17.118;2023-01-16T13:32:25;7.70;81.40
14877;DHT22;22152;48.158;17.118;2023-01-16T13:42:05;7.30;83.70
14877;DHT22;22152;48.158;17.118;2023-01-16T13:44:43;7.30;84.20
14877;DHT22;22152;48.158;17.118;2023-01-16T13:47:57;7.30;84.30
14877;DHT22;22152;48.158;17.118;2023-01-16T13:50:31;7.20;84.80
14877;DHT22;22152;48.158;17.118;2023-01-16T13:53:25;7.20;85.60
14877;DHT22;22152;48.158;17.118;2023-01-16T13:56:10;7.20;86.00
14877;DHT22;22152;48.158;17.118;2023-01-16T14:08:48;7.20;87.00
14877;DHT22;22152;48.158;17.118;2023-01-16T14:14:50;7.10;87.50
14877;DHT22;22152;48.158;17.118;2023-01-16T14:18:35;7.00;88.50
14877;DHT22;22152;48.158;17.118;2023-01-16T14:21:21;7.10;89.20
14877;DHT22;22152;48.158;17.118;2023-01-16T14:24:19;7.10;88.90
14877;DHT22;22152;48.158;17.118;2023-01-16T14:26:57;7.10;89.00
14877;DHT22;22152;48.158;17.118;2023-01-16T14:29:56;7.00;89.50
14877;DHT22;22152;48.158;17.118;2023-01-16T14:32:33;7.10;90.00
14877;DHT22;22152;48.158;17.118;2023-01-16T14:35:50;7.10;90.00
14877;DHT22;22152;48.158;17.118;2023-01-16T14:38:26;7.10;89.90
14877;DHT22;22152;48.158;17.118;2023-01-16T14:41:32;7.00;90.10
14877;DHT22;22152;48.158;17.118;2023-01-16T14:44:22;7.00;90.30
14877;DHT22;22152;48.158;17.118;2023-01-16T14:47:33;7.00;90.30
14877;DHT22;22152;48.158;17.118;2023-01-16T14:50:44;7.10;90.50
14877;DHT22;22152;48.158;17.118;2023-01-16T14:54:06;7.10;90.60
14877;DHT22;22152;48.158;17.118;2023-01-16T14:57:13;7.00;90.90
14877;DHT22;22152;48.158;17.118;2023-01-16T15:00:12;7.10;91.00
14877;DHT22;22152;48.158;17.118;2023-01-16T15:02:51;7.00;91.10
14877;DHT22;22152;48.158;17.118;2023-01-16T15:05:50;7.00;91.40
14877;DHT22;22152;48.158;17.118;2023-01-16T15:08:32;7.10;91.60
14877;DHT22;22152;48.158;17.118;2023-01-16T15:11:30;7.20;91.50
14877;DHT22;22152;48.158;17.118;2023-01-16T15:14:17;7.30;91.60
14877;DHT22;22152;48.158;17.118;2023-01-16T15:17:39;7.20;91.40
14877;DHT22;22152;48.158;17.118;2023-01-16T15:20:51;7.20;91.60
14877;DHT22;22152;48.158;17.118;2023-01-16T15:23:42;7.20;91.90
14877;DHT22;22152;48.158;17.118;2023-01-16T15:27:05;7.20;91.90
14877;DHT22;22152;48.158;17.118;2023-01-16T15:30:09;7.30;91.90
14877;DHT22;22152;48.158;17.118;2023-01-16T15:33:21;7.40;91.90
14877;DHT22;22152;48.158;17.118;2023-01-16T15:39:40;7.40;91.80
14877;DHT22;22152;48.158;17.118;2023-01-16T15:42:17;7.50;91.90
14877;DHT22;22152;48.158;17.118;2023-01-16T15:45:30;7.50;91.90
14877;DHT22;22152;48.158;17.118;2023-01-16T15:48:42;7.50;91.80
14877;DHT22;22152;48.158;17.118;2023-01-16T15:51:50;7.50;91.90
14877;DHT22;22152;48.158;17.118;2023-01-16T15:54:30;7.50;91.90
14877;DHT22;22152;48.158;17.118;2023-01-16T15:57:17;7.60;91.90
14877;DHT22;22152;48.158;17.118;2023-01-16T15:59:57;7.60;91.80
14877;DHT22;22152;48.158;17.118;2023-01-16T16:02:43;7.60;91.70
14877;DHT22;22152;48.158;17.118;2023-01-16T16:05:23;7.60;91.80
14877;DHT22;22152;48.158;17.118;2023-01-16T16:08:17;7.60;91.80
14877;DHT22;22152;48.158;17.118;2023-01-16T16:11:08;7.70;91.80
14877;DHT22;22152;48.158;17.118;2023-01-16T16:14:30;7.70;91.70
14877;DHT22;22152;48.158;17.118;2023-01-16T16:17:36;7.60;91.70
14877;DHT22;22152;48.158;17.118;2023-01-16T16:20:42;7.60;92.10
14877;DHT22;22152;48.158;17.118;2023-01-16T16:23:21;7.60;92.50
14877;DHT22;22152;48.158;17.118;2023-01-16T16:26:16;7.60;92.00
14877;DHT22;22152;48.158;17.118;2023-01-16T16:28:48;7.60;92.00
14877;DHT22;22152;48.158;17.118;2023-01-16T16:31:42;7.60;92.00
14877;DHT22;22152;48.158;17.118;2023-01-16T16:34:19;7.60;92.00
14877;DHT22;22152;48.158;17.118;2023-01-16T16:37:15;7.60;92.10
14877;DHT22;22152;48.158;17.118;2023-01-16T16:42:52;7.70;91.90
14877;DHT22;22152;48.158;17.118;2023-01-16T16:45:31;7.80;91.70
14877;DHT22;22152;48.158;17.118;2023-01-16T16:48:29;7.70;92.10
14877;DHT22;22152;48.158;17.118;2023-01-16T16:51:17;7.70;91.90
14877;DHT22;22152;48.158;17.118;2023-01-16T16:54:25;7.70;91.80
14877;DHT22;22152;48.158;17.118;2023-01-16T16:57:08;7.70;91.70
14877;DHT22;22152;48.158;17.118;2023-01-16T16:59:55;7.70;91.70
14877;DHT22;22152;48.158;17.118;2023-01-16T17:02:34;7.60;91.70
14877;DHT22;22152;48.158;17.118;2023-01-16T17:05:20;7.60;91.90
14877;DHT22;22152;48.158;17.118;2023-01-16T17:07:59;7.60;91.80
14877;DHT22;22152;48.158;17.118;2023-01-16T17:10:45;7.50;91.70
14877;DHT22;22152;48.158;17.118;2023-01-16T17:13:28;7.50;91.70
14877;DHT22;22152;48.158;17.118;2023-01-16T17:16:25;7.50;91.80
14877;DHT22;22152;48.158;17.118;2023-01-16T17:19:22;7.50;91.80
14877;DHT22;22152;48.158;17.118;2023-01-16T17:22:00;7.50;91.70
14877;DHT22;22152;48.158;17.118;2023-01-16T17:24:53;7.40;91.50
14877;DHT22;22152;48.158;17.118;2023-01-16T17:27:26;7.40;91.60
14877;DHT22;22152;48.158;17.118;2023-01-16T17:30:20;7.40;91.50
14877;DHT22;22152;48.158;17.118;2023-01-16T17:33:09;7.30;91.20
14877;DHT22;22152;48.158;17.118;2023-01-16T17:36:05;7.20;91.20
14877;DHT22;22152;48.158;17.118;2023-01-16T17:38:44;7.10;91.10
14877;DHT22;22152;48.158;17.118;2023-01-16T17:41:38;7.10;91.40
14877;DHT22;22152;48.158;17.118;2023-01-16T17:44:21;7.10;91.40
14877;DHT22;22152;48.158;17.118;2023-01-16T17:47:34;7.00;91.30
14877;DHT22;22152;48.158;17.118;2023-01-16T17:50:08;7.00;91.30
14877;DHT22;22152;48.158;17.118;2023-01-16T17:53:12;7.00;91.30
14877;DHT22;22152;48.158;17.118;2023-01-16T17:55:48;7.00;91.10
14877;DHT22;22152;48.158;17.118;2023-01-16T17:58:43;7.10;90.90
14877;DHT22;22152;48.158;17.118;2023-01-16T18:04:23;7.10;90.40
14877;DHT22;22152;48.158;17.118;2023-01-16T18:06:55;7.10;90.30
14877;DHT22;22152;48.158;17.118;2023-01-16T18:09:50;7.00;90.10
14877;DHT22;22152;48.158;17.118;2023-01-16T18:12:22;6.90;90.00
14877;DHT22;22152;48.158;17.118;2023-01-16T18:15:33;6.80;89.60
14877;DHT22;22152;48.158;17.118;2023-01-16T18:18:44;6.70;89.20
14877;DHT22;22152;48.158;17.118;2023-01-16T18:21:16;6.70;89.20
14877;DHT22;22152;48.158;17.118;2023-01-16T18:24:42;6.70;89.60
14877;DHT22;22152;48.158;17.118;2023-01-16T18:27:17;6.70;88.60
14877;DHT22;22152;48.158;17.118;2023-01-16T18:30:10;6.70;87.90
14877;DHT22;22152;48.158;17.118;2023-01-16T18:32:43;6.60;88.20
14877;DHT22;22152;48.158;17.118;2023-01-16T18:35:36;6.60;88.20
14877;DHT22;22152;48.158;17.118;2023-01-16T18:38:08;6.60;88.10
14877;DHT22;22152;48.158;17.118;2023-01-16T18:41:19;6.60;88.10
14877;DHT22;22152;48.158;17.118;2023-01-16T18:44:10;6.60;88.20
14877;DHT22;22152;48.158;17.118;2023-01-16T18:47:21;6.60;88.00
14877;DHT22;22152;48.158;17.118;2023-01-16T18:50:22;6.70;87.80
14877;DHT22;22152;48.158;17.118;2023-01-16T18:53:51;6.70;87.30
14877;DHT22;22152;48.158;17.118;2023-01-16T18:56:47;6.60;87.70
14877;DHT22;22152;48.158;17.118;2023-01-16T19:00:13;6.60;88.40
14877;DHT22;22152;48.158;17.118;2023-01-16T19:03:05;6.50;88.40
14877;DHT22;22152;48.158;17.118;2023-01-16T19:05:58;6.60;88.40
14877;DHT22;22152;48.158;17.118;2023-01-16T19:08:30;6.60;88.30
14877;DHT22;22152;48.158;17.118;2023-01-16T19:11:23;6.60;88.40
14877;DHT22;22152;48.158;17.118;2023-01-16T19:13:55;6.60;88.20
14877;DHT22;22152;48.158;17.118;2023-01-16T19:16:48;6.60;88.50
14877;DHT22;22152;48.158;17.118;2023-01-16T19:19:41;6.50;88.30
14877;DHT22;22152;48.158;17.118;2023-01-16T19:22:14;6.50;88.10
14877;DHT22;22152;48.158;17.118;2023-01-16T19:25:08;6.40;88.50
14877;DHT22;22152;48.158;17.118;2023-01-16T19:27:40;6.50;88.80
14877;DHT22;22152;48.158;17.118;2023-01-16T19:30:34;6.40;88.30
14877;DHT22;22152;48.158;17.118;2023-01-16T19:33:13;6.50;88.70
14877;DHT22;22152;48.158;17.118;2023-01-16T19:36:07;6.50;88.60
14877;DHT22;22152;48.158;17.118;2023-01-16T19:38:40;6.50;88.00
14877;DHT22;22152;48.158;17.118;2023-01-16T19:41:34;6.60;88.00
14877;DHT22;22152;48.158;17.118;2023-01-16T19:44:26;6.60;87.60
14877;DHT22;22152;48.158;17.118;2023-01-16T19:47:37;6.70;87.20
14877;DHT22;22152;48.158;17.118;2023-01-16T19:50:09;6.60;86.90
14877;DHT22;22152;48.158;17.118;2023-01-16T19:53:06;6.60;87.10
14877;DHT22;22152;48.158;17.118;2023-01-16T19:55:38;6.60;86.70
14877;DHT22;22152;48.158;17.118;2023-01-16T19:58:31;6.60;86.50
14877;DHT22;22152;48.158;17.118;2023-01-16T20:01:11;6.60;85.70
14877;DHT22;22152;48.158;17.118;2023-01-16T20:03:58;6.50;85.80
14877;DHT22;22152;48.158;17.118;2023-01-16T20:06:37;6.40;85.90
14877;DHT22;22152;48.158;17.118;2023-01-16T20:09:23;6.40;85.60
14877;DHT22;22152;48.158;17.118;2023-01-16T20:12:03;6.40;85.70